Time;durP1;ratioP1;P1;durP2;ratioP2;P2;SDS_P1;SDS_P2;PMS_P1;PMS_P2;Temp;Humidity;BMP_temperature;BMP_pressure;BME280_temperature;BME280_humidity;BME280_pressure;Samples;Min_cycle;Max_cycle;Signal;HPM_P1;HPM_P2
2023/04/25 00:00:55;;;;;;;3.70;2.17;;;9.90;98.00;;;;;;5031146;28;20469;-64
2023/04/25 00:03:24;;;;;;;4.10;2.20;;;10.00;98.00;;;;;;5032922;28;20458;-66
2023/04/25 00:05:52;;;;;;;2.50;1.70;;;10.10;98.00;;;;;;5032794;28;20953;-65
2023/04/25 00:08:20;;;;;;;2.10;1.73;;;10.30;98.00;;;;;;5032875;28;20541;-65
2023/04/25 00:10:48;;;;;;;3.87;1.90;;;10.30;98.00;;;;;;5032955;28;20463;-65
2023/04/25 00:13:17;;;;;;;3.30;1.80;;;10.40;98.00;;;;;;5032717;28;20491;-65
2023/04/25 00:15:46;;;;;;;8.73;1.80;;;10.30;98.00;;;;;;5032742;28;20463;-66
2023/04/25 00:18:15;;;;;;;4.17;1.90;;;10.30;98.00;;;;;;5032721;28;20805;-65
2023/04/25 00:20:46;;;;;;;2.27;1.53;;;10.40;98.00;;;;;;5032991;28;20870;-65
2023/04/25 00:23:17;;;;;;;1.70;1.40;;;10.40;98.00;;;;;;5032776;28;20483;-66
2023/04/25 00:25:44;;;;;;;2.17;1.53;;;10.50;98.00;;;;;;5032702;28;20481;-65
2023/04/25 00:28:11;;;;;;;1.73;1.60;;;10.30;98.00;;;;;;5032603;28;20894;-65
2023/04/25 00:30:39;;;;;;;2.50;1.70;;;10.30;98.00;;;;;;5032465;28;20829;-66
2023/04/25 00:33:06;;;;;;;3.10;1.70;;;10.20;98.00;;;;;;5032290;28;20486;-65
2023/04/25 00:35:34;;;;;;;1.80;1.57;;;10.10;98.00;;;;;;5032293;28;20536;-65
2023/04/25 00:38:02;;;;;;;2.03;1.60;;;10.00;98.00;;;;;;5032356;28;20459;-65
2023/04/25 00:40:30;;;;;;;3.30;1.80;;;10.00;98.00;;;;;;5032352;28;20891;-66
2023/04/25 00:42:57;;;;;;;2.80;1.80;;;10.00;98.00;;;;;;5032225;28;20454;-65
2023/04/25 00:45:29;;;;;;;3.03;1.80;;;10.00;98.00;;;;;;5031535;28;20520;-66
2023/04/25 00:47:56;;;;;;;3.73;1.57;;;10.10;98.00;;;;;;5032213;28;20556;-65
2023/04/25 00:50:23;;;;;;;2.70;1.60;;;10.10;98.00;;;;;;5032257;28;20468;-66
2023/04/25 00:52:52;;;;;;;2.33;1.60;;;10.20;98.00;;;;;;5031978;28;20482;-65
2023/04/25 00:55:21;;;;;;;2.47;1.87;;;10.20;98.00;;;;;;5032112;28;21000;-64
2023/04/25 00:57:48;;;;;;;1.97;1.50;;;10.20;98.00;;;;;;5031961;28;20527;-66
2023/04/25 01:00:17;;;;;;;2.93;1.77;;;10.10;98.00;;;;;;5031761;28;20557;-66
2023/04/25 01:02:45;;;;;;;3.00;1.73;;;10.00;98.00;;;;;;5031535;28;20461;-66
2023/04/25 01:05:13;;;;;;;2.13;1.57;;;9.90;98.00;;;;;;5031755;28;20505;-65
2023/04/25 01:07:40;;;;;;;2.23;1.80;;;9.80;98.00;;;;;;5031857;28;20873;-65
2023/04/25 01:10:10;;;;;;;2.73;1.40;;;9.70;98.00;;;;;;5031013;28;20813;-66
2023/04/25 01:12:38;;;;;;;2.00;1.67;;;9.60;98.00;;;;;;5031529;28;20482;-65
2023/04/25 01:15:06;;;;;;;2.87;1.90;;;9.40;98.00;;;;;;5031746;28;20485;-66
2023/04/25 01:17:34;;;;;;;2.17;1.80;;;9.50;98.00;;;;;;5031894;28;20974;-64
2023/04/25 01:20:04;;;;;;;3.00;1.70;;;9.50;98.00;;;;;;5031371;28;20505;-66
2023/04/25 01:22:32;;;;;;;2.23;1.30;;;9.60;98.00;;;;;;5031659;28;20554;-66
2023/04/25 01:25:00;;;;;;;2.00;1.60;;;9.60;98.00;;;;;;5031623;28;20476;-66
2023/04/25 01:27:28;;;;;;;2.27;1.70;;;9.60;98.00;;;;;;5031503;28;20458;-65
2023/04/25 01:29:56;;;;;;;1.97;1.63;;;9.80;98.00;;;;;;5031537;28;20468;-65
2023/04/25 01:32:24;;;;;;;2.13;1.50;;;9.80;98.00;;;;;;5031292;28;20594;-66
2023/04/25 01:34:52;;;;;;;2.87;1.70;;;9.90;98.00;;;;;;5031358;28;21002;-66
2023/04/25 01:37:19;;;;;;;3.00;1.90;;;10.00;98.00;;;;;;5031148;28;20459;-66
2023/04/25 01:39:50;;;;;;;3.27;2.20;;;9.80;98.00;;;;;;5031212;28;20459;-65
2023/04/25 01:42:17;;;;;;;2.03;1.57;;;9.80;98.00;;;;;;5031235;28;20549;-66
2023/04/25 01:44:44;;;;;;;3.90;1.93;;;9.80;98.00;;;;;;5030950;28;20473;-66
2023/04/25 01:47:11;;;;;;;3.20;2.03;;;9.90;98.00;;;;;;5031277;28;20524;-65
2023/04/25 01:49:38;;;;;;;1.73;1.40;;;9.90;98.00;;;;;;5031133;28;21020;-66
2023/04/25 01:52:05;;;;;;;3.73;1.80;;;10.00;98.00;;;;;;5031143;28;20652;-65
2023/04/25 01:54:32;;;;;;;3.03;2.00;;;10.10;98.00;;;;;;5031256;28;20463;-66
2023/04/25 01:57:01;;;;;;;2.43;1.67;;;10.20;98.00;;;;;;5031100;28;20513;-66
2023/04/25 01:59:28;;;;;;;2.03;1.50;;;10.20;98.00;;;;;;5031075;28;20470;-65
2023/04/25 02:01:55;;;;;;;2.40;1.57;;;10.20;98.00;;;;;;5031043;28;20461;-65
2023/04/25 02:04:22;;;;;;;2.27;2.00;;;10.20;98.00;;;;;;5031133;28;20470;-65
2023/04/25 02:06:50;;;;;;;3.73;2.50;;;;;;;;;;5030990;28;20460;-66
2023/04/25 02:09:18;;;;;;;2.63;1.60;;;10.10;98.00;;;;;;5031009;28;21036;-65
2023/04/25 02:11:45;;;;;;;3.07;1.97;;;10.10;98.00;;;;;;5030867;28;20462;-65
2023/04/25 02:14:14;;;;;;;3.53;1.90;;;9.90;98.00;;;;;;5031129;28;20467;-66
2023/04/25 02:16:43;;;;;;;4.10;1.87;;;9.80;98.00;;;;;;5031148;28;20534;-66
2023/04/25 02:19:13;;;;;;;3.40;1.93;;;9.80;98.00;;;;;;5031112;28;20483;-65
2023/04/25 02:21:41;;;;;;;2.40;1.83;;;9.70;98.00;;;;;;5031996;28;20536;-65
2023/04/25 02:24:09;;;;;;;3.03;1.90;;;9.80;98.00;;;;;;5034760;28;20463;-65
2023/04/25 02:26:36;;;;;;;2.70;1.70;;;9.80;98.00;;;;;;5034753;28;20547;-66
2023/04/25 02:29:03;;;;;;;2.57;1.87;;;9.80;98.00;;;;;;5034597;28;20729;-66
2023/04/25 02:31:32;;;;;;;2.40;1.80;;;9.70;98.00;;;;;;5034671;28;20454;-65
2023/04/25 02:33:59;;;;;;;4.43;2.20;;;9.80;98.00;;;;;;5034167;28;20496;-66
2023/04/25 02:36:34;;;;;;;2.60;1.60;;;9.80;98.00;;;;;;5034450;28;20484;-65
2023/04/25 02:39:01;;;;;;;3.23;1.90;;;9.70;98.00;;;;;;5034068;28;20948;-66
2023/04/25 02:41:31;;;;;;;4.37;1.83;;;9.70;98.00;;;;;;5034392;28;20457;-65
2023/04/25 02:43:59;;;;;;;2.77;1.60;;;9.80;98.00;;;;;;5034528;28;20454;-65
2023/04/25 02:46:26;;;;;;;1.80;1.43;;;9.70;98.00;;;;;;5034134;28;20469;-65
2023/04/25 02:48:54;;;;;;;4.57;2.00;;;9.80;98.00;;;;;;5034626;28;20463;-66
2023/04/25 02:51:21;;;;;;;2.77;1.80;;;9.90;98.00;;;;;;5034188;28;20549;-65
2023/04/25 02:53:48;;;;;;;3.83;2.27;;;9.70;98.00;;;;;;5034225;28;20476;-66
2023/04/25 02:56:15;;;;;;;4.60;1.80;;;9.60;98.00;;;;;;5034220;28;20949;-65
2023/04/25 02:58:43;;;;;;;2.63;1.80;;;9.60;98.00;;;;;;5034268;28;20469;-66
2023/04/25 03:01:10;;;;;;;4.47;2.07;;;9.60;98.00;;;;;;5034017;28;21031;-66
2023/04/25 03:03:37;;;;;;;2.50;1.83;;;9.60;98.00;;;;;;5034231;28;20466;-66
2023/04/25 03:06:06;;;;;;;2.70;1.70;;;9.70;98.00;;;;;;5034077;28;21006;-65
2023/04/25 03:08:34;;;;;;;2.03;1.50;;;9.70;98.00;;;;;;5034126;28;20458;-66
2023/04/25 03:11:01;;;;;;;2.57;1.80;;;9.60;98.00;;;;;;5033910;28;20463;-65
2023/04/25 03:13:29;;;;;;;4.40;1.63;;;9.70;98.00;;;;;;5034057;28;21031;-66
2023/04/25 03:15:56;;;;;;;2.53;1.83;;;9.70;98.00;;;;;;5034170;28;20547;-65
2023/04/25 03:18:23;;;;;;;3.57;1.83;;;9.80;98.00;;;;;;5033814;28;20532;-65
2023/04/25 03:20:51;;;;;;;2.73;1.90;;;9.80;98.00;;;;;;5033911;28;20467;-65
2023/04/25 03:23:19;;;;;;;3.63;2.60;;;9.60;98.00;;;;;;5033703;28;21018;-65
2023/04/25 03:25:46;;;;;;;3.83;2.20;;;9.50;98.00;;;;;;5033619;28;20462;-66
2023/04/25 03:28:14;;;;;;;2.00;1.70;;;9.40;98.00;;;;;;5033633;28;20481;-66
2023/04/25 03:30:41;;;;;;;2.03;1.57;;;9.40;98.00;;;;;;5033665;28;20511;-64
2023/04/25 03:33:08;;;;;;;1.60;1.30;;;9.50;98.00;;;;;;5032683;28;20821;-65
2023/04/25 03:35:35;;;;;;;2.50;1.53;;;9.60;98.00;;;;;;5033765;28;20500;-65
2023/04/25 03:38:02;;;;;;;3.03;1.77;;;9.80;98.00;;;;;;5033871;28;20472;-65
2023/04/25 03:40:31;;;;;;;2.23;1.80;;;9.90;98.00;;;;;;5033310;28;20514;-66
2023/04/25 03:42:58;;;;;;;3.10;1.90;;;9.90;98.00;;;;;;5033401;28;20457;-65
2023/04/25 03:45:25;;;;;;;4.20;1.60;;;10.00;98.00;;;;;;5033790;28;20540;-66
2023/04/25 03:47:52;;;;;;;2.73;1.77;;;10.00;98.00;;;;;;5034342;28;20461;-65
2023/04/25 03:50:19;;;;;;;2.63;1.80;;;10.00;98.00;;;;;;5033434;28;20462;-65
2023/04/25 03:52:46;;;;;;;2.70;1.67;;;9.90;98.00;;;;;;5033626;28;20499;-65
2023/04/25 03:55:13;;;;;;;2.73;2.00;;;9.80;98.00;;;;;;5033613;28;20471;-66
2023/04/25 03:57:41;;;;;;;2.40;1.50;;;9.60;98.00;;;;;;5033179;28;20470;-65
2023/04/25 04:00:10;;;;;;;2.77;1.80;;;9.60;98.00;;;;;;5033043;28;20454;-65
2023/04/25 04:02:37;;;;;;;7.60;1.80;;;9.70;98.00;;;;;;5033156;28;20464;-65
2023/04/25 04:05:05;;;;;;;2.00;1.60;;;9.90;98.00;;;;;;5032592;28;20542;-65
2023/04/25 04:07:33;;;;;;;3.13;2.00;;;9.80;98.00;;;;;;5033088;28;20449;-65
2023/04/25 04:10:00;;;;;;;3.90;2.30;;;9.80;98.00;;;;;;5033250;28;20939;-66
2023/04/25 04:12:27;;;;;;;3.03;1.90;;;9.80;98.00;;;;;;5032956;28;20529;-65
2023/04/25 04:14:56;;;;;;;3.73;1.90;;;9.90;98.00;;;;;;5033065;28;20455;-65
2023/04/25 04:17:23;;;;;;;1.63;1.50;;;9.80;98.00;;;;;;5032820;28;20454;-65
2023/04/25 04:19:50;;;;;;;2.33;1.70;;;9.80;98.00;;;;;;5033127;28;20451;-66
2023/04/25 04:22:17;;;;;;;2.50;1.87;;;9.90;98.00;;;;;;5032730;28;20548;-65
2023/04/25 04:24:46;;;;;;;2.23;1.73;;;9.80;98.00;;;;;;5032546;28;20952;-66
2023/04/25 04:27:13;;;;;;;3.33;1.90;;;9.70;98.00;;;;;;5015020;28;20516;-66
2023/04/25 04:29:41;;;;;;;4.43;2.07;;;9.70;98.00;;;;;;5032454;28;20459;-64
2023/04/25 04:32:09;;;;;;;3.10;2.10;;;9.70;98.00;;;;;;5032361;28;20485;-66
2023/04/25 04:34:37;;;;;;;5.40;2.00;;;9.50;98.00;;;;;;5032282;28;21053;-65
2023/04/25 04:37:04;;;;;;;2.47;1.67;;;9.40;98.00;;;;;;5032247;28;20497;-65
2023/04/25 04:39:32;;;;;;;5.10;1.60;;;9.40;98.00;;;;;;5032375;28;20521;-66
2023/04/25 04:42:01;;;;;;;2.87;1.77;;;9.30;98.00;;;;;;5030354;28;20968;-65
2023/04/25 04:44:28;;;;;;;3.37;1.93;;;9.30;98.00;;;;;;5032281;28;20827;-65
2023/04/25 04:46:55;;;;;;;11.50;1.83;;;9.30;98.00;;;;;;5032284;28;20546;-64
2023/04/25 04:49:23;;;;;;;9.30;2.10;;;9.40;98.00;;;;;;5032024;28;20521;-66
2023/04/25 04:51:50;;;;;;;1.80;1.50;;;9.60;98.00;;;;;;5032174;28;20460;-66
2023/04/25 04:54:17;;;;;;;2.90;2.20;;;9.70;98.00;;;;;;5031915;28;21427;-65
2023/04/25 04:56:46;;;;;;;3.20;1.80;;;9.70;98.00;;;;;;5031948;28;20458;-65
2023/04/25 04:59:13;;;;;;;3.10;2.00;;;9.60;98.00;;;;;;5014685;28;20957;-66
2023/04/25 05:01:40;;;;;;;2.23;1.70;;;9.60;98.00;;;;;;5032001;28;20461;-65
2023/04/25 05:04:07;;;;;;;2.87;1.97;;;9.80;98.00;;;;;;5032011;28;20458;-65
2023/04/25 05:06:35;;;;;;;3.20;1.70;;;9.70;98.00;;;;;;5014728;28;20459;-65
2023/04/25 05:09:03;;;;;;;2.63;1.60;;;9.60;98.00;;;;;;5032140;28;20454;-65
2023/04/25 05:11:30;;;;;;;7.67;2.00;;;9.60;98.00;;;;;;5031776;28;20949;-65
2023/04/25 05:13:57;;;;;;;2.23;1.80;;;9.70;98.00;;;;;;5031531;28;20552;-65
2023/04/25 05:16:26;;;;;;;1.97;1.50;;;9.60;98.00;;;;;;5013878;28;21005;-65
2023/04/25 05:18:53;;;;;;;2.30;1.70;;;9.60;98.00;;;;;;5031678;28;20470;-65
2023/04/25 05:21:20;;;;;;;2.60;1.60;;;9.80;98.00;;;;;;5031557;28;20508;-65
2023/04/25 05:23:49;;;;;;;6.20;1.93;;;9.90;98.00;;;;;;5031536;28;20460;-65
2023/04/25 05:26:16;;;;;;;3.03;1.80;;;9.90;98.00;;;;;;5031541;28;20454;-66
2023/04/25 05:28:43;;;;;;;6.10;1.80;;;10.10;98.00;;;;;;5031480;28;20468;-65
2023/04/25 05:31:11;;;;;;;3.77;2.30;;;10.00;98.00;;;;;;5031405;28;20469;-65
2023/04/25 05:33:38;;;;;;;3.20;1.87;;;10.10;98.00;;;;;;5031400;28;20492;-65
2023/04/25 05:36:06;;;;;;;5.00;2.03;;;10.20;98.00;;;;;;5031358;28;20472;-65
2023/04/25 05:38:33;;;;;;;2.53;1.90;;;10.30;98.00;;;;;;5013834;28;20463;-65
2023/04/25 05:41:02;;;;;;;3.33;2.33;;;10.40;98.00;;;;;;5031329;28;20455;-65
2023/04/25 05:43:29;;;;;;;4.17;2.17;;;10.40;98.00;;;;;;5031233;28;20470;-66
2023/04/25 05:45:56;;;;;;;2.47;1.90;;;10.40;98.00;;;;;;5031187;28;20465;-65
2023/04/25 05:48:23;;;;;;;2.10;1.70;;;10.40;98.00;;;;;;5031217;28;20889;-65
2023/04/25 05:50:51;;;;;;;2.83;1.90;;;10.50;98.00;;;;;;5031290;28;20495;-66
2023/04/25 05:53:18;;;;;;;3.70;2.23;;;10.60;98.00;;;;;;5031265;28;20523;-66
2023/04/25 05:55:45;;;;;;;7.43;2.77;;;10.60;98.00;;;;;;5031077;28;20827;-66
2023/04/25 05:58:14;;;;;;;4.53;2.47;;;10.70;98.00;;;;;;5030901;28;20458;-65
2023/04/25 06:00:41;;;;;;;4.70;2.37;;;10.80;98.00;;;;;;5013597;28;20456;-64
2023/04/25 06:03:09;;;;;;;3.57;2.10;;;10.80;98.00;;;;;;5031082;28;20952;-63
2023/04/25 06:05:36;;;;;;;3.27;2.57;;;10.70;98.00;;;;;;5031197;28;20488;-62
2023/04/25 06:08:04;;;;;;;3.93;2.67;;;10.70;98.00;;;;;;5031049;28;20487;-63
2023/04/25 06:10:31;;;;;;;4.30;2.10;;;10.70;98.00;;;;;;5246558;22;20505;-72
2023/04/25 06:12:58;;;;;;;2.80;1.93;;;10.60;98.00;;;;;;5049693;28;20524;-71
2023/04/25 06:15:26;;;;;;;3.13;1.93;;;10.60;98.00;;;;;;5051234;28;21024;-71
2023/04/25 06:20:23;;;;;;;2.03;1.70;;;10.40;98.00;;;;;;5049250;28;20507;-71
2023/04/25 06:22:51;;;;;;;4.97;2.30;;;10.40;98.00;;;;;;5050792;28;20557;-71
2023/04/25 06:25:18;;;;;;;4.53;2.47;;;10.40;98.00;;;;;;5050572;28;20517;-71
2023/04/25 06:27:46;;;;;;;3.27;2.03;;;10.30;98.00;;;;;;5050583;28;20464;-71
2023/04/25 06:30:13;;;;;;;3.80;1.93;;;10.10;98.00;;;;;;5050612;28;20462;-71
2023/04/25 06:32:42;;;;;;;3.40;1.90;;;10.00;98.00;;;;;;5050916;28;20540;-71
2023/04/25 06:35:10;;;;;;;5.97;2.57;;;10.00;98.00;;;;;;5049152;28;20550;-71
2023/04/25 06:37:37;;;;;;;2.97;2.13;;;10.00;98.00;;;;;;5050564;28;20731;-71
2023/04/25 06:40:04;;;;;;;2.50;1.83;;;10.00;98.00;;;;;;5050635;28;20446;-71
2023/04/25 06:42:34;;;;;;;3.60;2.27;;;10.10;98.00;;;;;;5050430;28;20970;-71
2023/04/25 06:45:01;;;;;;;4.60;2.70;;;10.20;98.00;;;;;;5050862;28;20504;-71
2023/04/25 06:47:29;;;;;;;5.20;2.53;;;10.20;98.00;;;;;;5050739;28;20453;-69
2023/04/25 06:49:58;;;;;;;3.93;2.30;;;10.30;98.00;;;;;;5050701;28;20449;-68
2023/04/25 06:52:25;;;;;;;4.60;2.87;;;10.40;98.00;;;;;;5050517;28;20884;-69
2023/04/25 06:54:52;;;;;;;4.73;2.50;;;10.50;98.00;;;;;;5050463;28;20988;-69
2023/04/25 06:57:19;;;;;;;3.97;2.20;;;10.60;98.00;;;;;;5050507;28;20818;-69
2023/04/25 06:59:48;;;;;;;2.70;2.00;;;10.70;98.00;;;;;;5049465;28;20471;-69
2023/04/25 07:02:15;;;;;;;3.50;1.97;;;10.70;98.00;;;;;;5050496;28;20477;-69
2023/04/25 07:04:42;;;;;;;1.90;1.70;;;10.70;98.00;;;;;;5050475;28;20967;-69
2023/04/25 07:07:10;;;;;;;3.70;2.00;;;10.90;98.00;;;;;;5050308;28;21017;-69
2023/04/25 07:09:37;;;;;;;2.10;1.63;;;10.80;98.00;;;;;;5052681;28;20461;-69
2023/04/25 07:12:05;;;;;;;3.33;1.90;;;10.90;98.00;;;;;;5053761;28;20461;-69
2023/04/25 07:14:32;;;;;;;3.17;2.07;;;11.00;98.00;;;;;;5053967;28;20488;-69
2023/04/25 07:16:59;;;;;;;4.00;2.50;;;10.90;98.00;;;;;;5053713;28;20462;-69
2023/04/25 07:19:26;;;;;;;3.63;2.10;;;10.80;98.00;;;;;;5053760;28;20465;-69
2023/04/25 07:21:54;;;;;;;3.30;2.33;;;10.90;98.00;;;;;;5053675;28;20453;-69
2023/04/25 07:24:23;;;;;;;3.80;2.20;;;10.90;98.00;;;;;;5053501;28;20465;-69
2023/04/25 07:26:50;;;;;;;3.90;2.17;;;11.10;98.00;;;;;;5052447;28;20521;-69
2023/04/25 07:29:17;;;;;;;2.70;2.00;;;11.20;98.00;;;;;;5057326;28;20468;-69
2023/04/25 07:31:44;;;;;;;3.67;2.57;;;11.30;98.00;;;;;;5053114;28;20449;-69
2023/04/25 07:34:11;;;;;;;3.67;2.30;;;11.20;98.00;;;;;;5053175;28;20856;-69
2023/04/25 07:36:38;;;;;;;3.60;1.90;;;11.00;98.00;;;;;;5053319;28;20462;-68
2023/04/25 07:39:05;;;;;;;3.47;2.20;;;10.90;98.00;;;;;;5053447;28;20458;-69
2023/04/25 07:41:34;;;;;;;3.90;2.43;;;11.00;98.00;;;;;;5053619;28;20454;-67
2023/04/25 07:44:02;;;;;;;5.10;2.63;;;11.20;98.00;;;;;;5053135;28;20496;-67
2023/04/25 07:46:29;;;;;;;4.27;2.30;;;11.20;98.00;;;;;;5052055;28;20467;-68
2023/04/25 07:48:56;;;;;;;3.10;2.10;;;11.20;98.00;;;;;;5053138;28;20453;-67
2023/04/25 07:51:23;;;;;;;2.33;1.77;;;11.10;98.00;;;;;;5052969;28;20462;-68
2023/04/25 07:53:50;;;;;;;3.50;1.90;;;11.10;98.00;;;;;;5053195;28;20571;-67
2023/04/25 07:56:17;;;;;;;3.73;2.20;;;11.00;98.00;;;;;;5053033;28;20454;-67
2023/04/25 07:58:46;;;;;;;4.20;2.50;;;11.10;98.00;;;;;;5051827;28;20623;-68
2023/04/25 08:01:13;;;;;;;2.83;1.90;;;11.20;98.00;;;;;;5052369;28;20459;-67
2023/04/25 08:03:41;;;;;;;4.20;2.43;;;11.20;98.00;;;;;;5052852;28;20496;-67
2023/04/25 08:06:22;;;;;;;4.63;2.40;;;11.10;98.00;;;;;;5052806;28;20453;-67
2023/04/25 08:08:51;;;;;;;3.63;2.30;;;10.90;98.00;;;;;;5053827;28;21022;-67
2023/04/25 08:11:18;;;;;;;3.13;2.40;;;10.70;98.00;;;;;;5053144;28;20525;-67
2023/04/25 08:13:47;;;;;;;4.10;2.40;;;10.60;98.00;;;;;;5051868;28;20453;-68
2023/04/25 08:16:14;;;;;;;4.30;2.43;;;10.60;98.00;;;;;;5053409;28;20462;-68
2023/04/25 08:18:41;;;;;;;3.83;2.17;;;10.40;98.00;;;;;;5051647;28;20829;-68
2023/04/25 08:21:11;;;;;;;4.07;2.30;;;10.30;98.00;;;;;;5052356;28;20457;-68
2023/04/25 08:23:38;;;;;;;4.90;2.80;;;10.30;98.00;;;;;;5052663;28;20465;-68
2023/04/25 08:26:05;;;;;;;3.53;2.33;;;10.20;98.00;;;;;;5052260;28;20976;-68
2023/04/25 08:28:32;;;;;;;7.20;2.90;;;10.20;98.00;;;;;;5052533;28;20493;-68
2023/04/25 08:31:01;;;;;;;4.47;2.30;;;10.20;98.00;;;;;;5052571;28;20456;-68
2023/04/25 08:33:32;;;;;;;3.83;2.33;;;10.20;98.00;;;;;;5052422;28;20466;-67
2023/04/25 08:35:59;;;;;;;5.80;2.80;;;10.20;98.00;;;;;;5052294;28;21037;-69
2023/04/25 08:38:26;;;;;;;2.47;1.90;;;10.20;98.00;;;;;;5052411;28;20553;-67
2023/04/25 08:40:56;;;;;;;4.53;2.20;;;10.20;98.00;;;;;;5052508;28;20464;-67
2023/04/25 08:43:25;;;;;;;3.47;2.10;;;10.10;98.00;;;;;;5052237;28;20503;-67
2023/04/25 08:45:54;;;;;;;2.57;1.80;;;10.20;98.00;;;;;;5050964;28;20489;-68
2023/04/25 08:48:27;;;;;;;2.50;1.80;;;10.20;98.00;;;;;;5050936;28;20543;-68
2023/04/25 08:50:56;;;;;;;3.27;2.00;;;10.20;98.00;;;;;;5052026;28;20512;-68
2023/04/25 08:53:27;;;;;;;4.03;2.27;;;10.40;98.00;;;;;;5051840;28;20464;-67
2023/04/25 08:55:55;;;;;;;4.90;2.30;;;10.50;98.00;;;;;;5051994;28;20887;-68
2023/04/25 08:58:24;;;;;;;5.03;1.90;;;10.60;98.00;;;;;;5052608;28;20939;-68
2023/04/25 09:03:19;;;;;;;3.97;2.20;;;10.40;98.00;;;;;;5030517;28;20989;-70
2023/04/25 09:05:48;;;;;;;4.07;2.50;;;10.40;98.00;;;;;;5031839;28;20455;-68
2023/04/25 09:08:15;;;;;;;4.40;2.40;;;10.40;98.00;;;;;;5031864;28;20458;-67
2023/04/25 09:10:42;;;;;;;4.73;2.50;;;10.40;98.00;;;;;;5031915;28;20676;-67
2023/04/25 09:13:12;;;;;;;3.30;2.13;;;10.30;98.00;;;;;;5031621;28;20464;-68
2023/04/25 09:15:51;;;;;;;4.17;2.13;;;10.30;98.00;;;;;;5031808;28;20486;-67
2023/04/25 09:18:25;;;;;;;6.10;2.70;;;10.30;98.00;;;;;;5031443;28;20512;-67
2023/04/25 09:20:54;;;;;;;2.60;1.77;;;10.30;98.00;;;;;;5031615;28;20504;-67
2023/04/25 09:23:23;;;;;;;4.70;2.70;;;10.30;98.00;;;;;;5031472;28;20508;-68
2023/04/25 09:25:51;;;;;;;4.07;2.47;;;10.30;98.00;;;;;;5031627;28;20451;-67
2023/04/25 09:28:26;;;;;;;3.70;2.60;;;10.30;98.00;;;;;;5031352;28;20460;-67
2023/04/25 09:30:57;;;;;;;4.60;2.20;;;10.20;98.00;;;;;;5031142;28;20469;-69
2023/04/25 09:33:30;;;;;;;4.23;2.50;;;10.10;98.00;;;;;;5031341;28;20472;-68
2023/04/25 09:36:06;;;;;;;2.00;1.53;;;10.10;98.00;;;;;;5031476;28;20998;-68
2023/04/25 09:38:42;;;;;;;3.83;2.20;;;10.00;98.00;;;;;;5030421;28;20975;-68
2023/04/25 09:41:09;;;;;;;3.03;2.00;;;9.80;98.00;;;;;;5031228;28;20473;-68
2023/04/25 09:43:37;;;;;;;3.83;2.10;;;9.80;98.00;;;;;;5031543;28;20465;-68
2023/04/25 09:46:08;;;;;;;3.93;2.37;;;9.70;98.00;;;;;;5031148;28;20983;-67
2023/04/25 09:48:36;;;;;;;3.70;2.40;;;9.80;98.00;;;;;;5031243;28;20461;-68
2023/04/25 09:51:09;;;;;;;4.27;2.03;;;9.80;98.00;;;;;;5029726;28;20491;-67
2023/04/25 09:53:38;;;;;;;2.90;1.83;;;9.80;98.00;;;;;;5031086;28;20998;-68
2023/04/25 09:56:07;;;;;;;2.80;2.07;;;9.90;98.00;;;;;;5031132;28;20493;-68
2023/04/25 09:58:36;;;;;;;2.93;1.60;;;10.00;98.00;;;;;;5031233;28;20474;-68
2023/04/25 10:01:05;;;;;;;3.47;2.00;;;9.90;98.00;;;;;;5031232;28;21091;-68
2023/04/25 10:03:35;;;;;;;2.97;1.43;;;10.00;98.00;;;;;;5031168;28;20509;-67
2023/04/25 10:06:04;;;;;;;4.30;2.30;;;10.20;98.00;;;;;;5032969;28;20829;-66
2023/04/25 10:08:34;;;;;;;1.73;1.50;;;10.10;98.00;;;;;;5033143;28;20962;-68
2023/04/25 10:11:09;;;;;;;2.43;1.53;;;9.90;98.00;;;;;;5031349;28;20457;-67
2023/04/25 10:13:37;;;;;;;3.30;1.93;;;9.80;98.00;;;;;;5031290;28;20494;-67
2023/04/25 10:16:05;;;;;;;2.00;1.63;;;9.80;98.00;;;;;;5032456;28;20514;-67
2023/04/25 10:18:33;;;;;;;2.70;2.10;;;9.70;98.00;;;;;;5031986;28;20457;-68
2023/04/25 10:21:04;;;;;;;2.70;1.87;;;9.80;98.00;;;;;;5030892;28;20481;-68
2023/04/25 10:23:34;;;;;;;3.30;1.90;;;9.80;98.00;;;;;;5031193;28;20487;-68
2023/04/25 10:26:02;;;;;;;2.60;2.13;;;9.80;98.00;;;;;;5030756;28;20455;-68
2023/04/25 10:28:29;;;;;;;4.00;2.33;;;9.90;98.00;;;;;;5030736;28;20477;-69
2023/04/25 10:31:00;;;;;;;3.83;2.10;;;9.80;98.00;;;;;;5031332;28;20451;-69
2023/04/25 10:33:37;;;;;;;3.73;2.20;;;9.70;98.00;;;;;;5030833;28;20816;-68
2023/04/25 10:36:33;;;;;;;3.23;1.87;;;9.60;98.00;;;;;;5030832;28;20979;-68
2023/04/25 10:39:09;;;;;;;4.67;2.40;;;9.50;98.00;;;;;;5030694;28;20941;-68
2023/04/25 10:41:53;;;;;;;3.30;1.93;;;9.40;98.00;;;;;;5030652;28;20456;-69
2023/04/25 10:44:20;;;;;;;3.60;1.70;;;9.30;98.00;;;;;;5034345;28;20779;-69
2023/04/25 10:46:48;;;;;;;1.97;1.50;;;9.20;98.00;;;;;;5034299;28;20467;-69
2023/04/25 10:49:31;;;;;;;2.63;1.73;;;9.40;98.00;;;;;;5034505;28;20454;-68
2023/04/25 10:52:14;;;;;;;4.03;1.83;;;9.40;98.00;;;;;;5034421;28;20734;-68
2023/04/25 10:54:47;;;;;;;2.60;1.70;;;9.30;98.00;;;;;;5032348;28;20532;-69
2023/04/25 10:57:39;;;;;;;2.70;1.70;;;9.30;98.00;;;;;;5034010;28;20487;-68
2023/04/25 11:00:12;;;;;;;2.17;1.70;;;9.30;98.00;;;;;;5033900;28;20512;-68
2023/04/25 11:02:42;;;;;;;2.40;1.60;;;9.30;98.00;;;;;;5033946;28;20567;-69
2023/04/25 11:05:10;;;;;;;1.60;1.50;;;9.30;98.00;;;;;;5034099;28;20456;-69
2023/04/25 11:07:44;;;;;;;2.10;1.60;;;9.50;98.00;;;;;;5034000;28;20469;-69
2023/04/25 11:10:15;;;;;;;4.23;2.00;;;9.50;98.00;;;;;;5034160;28;20453;-68
2023/04/25 11:12:42;;;;;;;3.20;1.77;;;9.30;98.00;;;;;;5033682;28;20495;-68
2023/04/25 11:15:10;;;;;;;2.57;1.80;;;9.00;98.00;;;;;;5033733;28;20774;-68
2023/04/25 11:17:39;;;;;;;2.40;1.53;;;8.70;98.00;;;;;;5033680;28;20540;-69
2023/04/25 11:20:11;;;;;;;2.13;1.63;;;8.60;98.00;;;;;;5033997;28;20979;-68
2023/04/25 11:22:38;;;;;;;3.77;1.67;;;8.50;98.00;;;;;;5034077;28;20457;-68
2023/04/25 11:25:07;;;;;;;2.37;1.50;;;8.40;98.00;;;;;;5033691;28;20953;-69
2023/04/25 11:27:38;;;;;;;1.67;1.50;;;8.40;98.00;;;;;;5033999;28;20504;-69
2023/04/25 11:30:16;;;;;;;2.43;1.90;;;8.40;98.00;;;;;;5033738;28;20469;-68
2023/04/25 11:32:43;;;;;;;4.03;2.10;;;8.30;98.00;;;;;;5032443;28;20556;-68
2023/04/25 11:35:10;;;;;;;3.13;1.87;;;8.40;98.00;;;;;;5033476;28;20880;-68
2023/04/25 11:37:40;;;;;;;2.83;2.03;;;8.50;98.00;;;;;;5033420;28;20933;-68
2023/04/25 11:40:11;;;;;;;5.77;2.70;;;8.40;98.00;;;;;;5033874;28;20464;-70
2023/04/25 11:42:45;;;;;;;4.17;2.53;;;8.30;98.00;;;;;;5033406;28;20463;-69
2023/04/25 11:47:46;;;;;;;4.60;2.47;;;8.50;98.00;;;;;;5031384;28;20472;-69
2023/04/25 11:50:14;;;;;;;3.53;2.13;;;;;;;;;;5033069;28;20458;-68
2023/04/25 11:52:42;;;;;;;1.70;1.40;;;8.50;98.00;;;;;;5032207;28;20470;-69
2023/04/25 11:55:11;;;;;;;8.60;2.00;;;8.40;98.00;;;;;;5032577;28;20536;-69
2023/04/25 11:57:41;;;;;;;2.90;1.90;;;8.40;98.00;;;;;;5033241;28;20457;-69
2023/04/25 12:00:12;;;;;;;3.07;1.50;;;8.40;98.00;;;;;;5033533;28;20457;-68
2023/04/25 12:02:41;;;;;;;1.90;1.60;;;8.40;98.00;;;;;;5033195;28;20955;-69
2023/04/25 12:05:09;;;;;;;2.80;1.73;;;8.50;98.00;;;;;;5033261;28;20943;-69
2023/04/25 12:07:37;;;;;;;2.00;1.50;;;8.70;98.00;;;;;;5033015;28;20455;-68
2023/04/25 12:10:09;;;;;;;6.80;1.50;;;8.70;98.00;;;;;;5033056;28;20528;-68
2023/04/25 12:12:37;;;;;;;2.70;1.77;;;8.90;98.00;;;;;;5032924;28;20459;-68
2023/04/25 12:15:19;;;;;;;2.43;1.50;;;9.20;98.00;;;;;;5032656;28;20482;-68
2023/04/25 12:17:47;;;;;;;2.13;1.60;;;9.50;98.00;;;;;;5032840;28;20453;-69
2023/04/25 12:20:15;;;;;;;2.33;1.60;;;9.60;98.00;;;;;;5015509;28;20512;-68
2023/04/25 12:22:45;;;;;;;2.00;1.50;;;9.80;98.00;;;;;;5032952;28;20463;-69
2023/04/25 12:25:13;;;;;;;2.57;1.80;;;9.90;98.00;;;;;;5032816;28;20513;-70
2023/04/25 12:27:41;;;;;;;2.90;1.70;;;10.10;98.00;;;;;;5032434;28;20539;-69
2023/04/25 12:30:10;;;;;;;4.20;2.33;;;10.00;98.00;;;;;;5032609;28;20451;-69
2023/04/25 12:32:38;;;;;;;3.20;2.10;;;10.20;98.00;;;;;;5014802;28;20473;-70
2023/04/25 12:35:07;;;;;;;3.13;1.90;;;10.20;98.00;;;;;;5032346;28;20449;-69
2023/04/25 12:37:34;;;;;;;5.07;2.50;;;10.20;98.00;;;;;;5032580;28;20502;-68
2023/04/25 12:40:02;;;;;;;2.80;1.70;;;10.20;98.00;;;;;;5032434;28;20464;-69
2023/04/25 12:42:30;;;;;;;2.57;1.90;;;10.40;98.00;;;;;;5015053;28;20491;-70
2023/04/25 12:44:57;;;;;;;3.87;1.80;;;10.60;98.00;;;;;;5032306;28;20523;-69
2023/04/25 12:47:25;;;;;;;2.97;1.90;;;10.80;98.00;;;;;;5032122;28;20465;-69
2023/04/25 12:49:54;;;;;;;2.13;1.83;;;10.80;98.00;;;;;;5032507;28;20822;-69
2023/04/25 12:52:21;;;;;;;4.47;1.93;;;10.80;98.00;;;;;;5032220;28;20859;-68
2023/04/25 12:54:48;;;;;;;3.50;1.90;;;10.80;98.00;;;;;;5032121;28;20456;-69
2023/04/25 12:57:15;;;;;;;3.37;2.50;;;10.80;98.00;;;;;;5032017;28;20907;-68
2023/04/25 12:59:42;;;;;;;1.90;1.50;;;10.80;98.00;;;;;;5032051;28;20465;-68
2023/04/25 13:02:09;;;;;;;4.23;2.47;;;10.70;98.00;;;;;;5031867;28;20453;-69
2023/04/25 13:04:36;;;;;;;3.27;1.83;;;10.60;98.00;;;;;;5032039;28;20829;-69
2023/04/25 13:07:05;;;;;;;1.87;1.47;;;10.30;98.00;;;;;;5031031;28;20471;-69